Time;durP1;ratioP1;P1;durP2;ratioP2;P2;SDS_P1;SDS_P2;PMS_P1;PMS_P2;Temp;Humidity;BMP_temperature;BMP_pressure;BME280_temperature;BME280_humidity;BME280_pressure;Samples;Min_cycle;Max_cycle;Signal;HPM_P1;HPM_P2
2022/11/19 00:00:38;;;;;;;0.80;0.80;;;;;;;6.93;37.78;91379.34;5083921;28;20083;-75
2022/11/19 00:03:04;;;;;;;0.60;0.60;;;;;;;6.92;37.52;91383.78;5077194;28;20062;-76
2022/11/19 00:05:29;;;;;;;4.05;0.80;;;;;;;6.88;38.09;91380.22;5058985;28;20040;-76
2022/11/19 00:07:55;;;;;;;0.80;0.80;;;;;;;6.84;38.31;91384.47;5092900;28;20040;-76
2022/11/19 00:10:20;;;;;;;0.73;0.73;;;;;;;6.99;38.22;91386.00;5094011;28;20477;-76
2022/11/19 00:12:54;;;;;;;0.55;0.55;;;;;;;6.91;37.81;91379.63;5082897;28;20048;-76
2022/11/19 00:15:21;;;;;;;0.60;0.60;;;;;;;6.97;38.00;91388.13;5072698;28;20141;-75
2022/11/19 00:17:47;;;;;;;0.77;0.77;;;;;;;6.98;37.99;91381.84;5073578;28;20044;-76
2022/11/19 00:20:13;;;;;;;0.98;0.90;;;;;;;7.01;37.72;91397.66;5089208;28;20389;-76
2022/11/19 00:22:42;;;;;;;0.65;0.65;;;;;;;6.96;38.02;91400.38;5092346;28;20031;-76
2022/11/19 00:25:08;;;;;;;0.70;0.70;;;;;;;7.05;37.38;91397.88;5092494;28;20039;-76
2022/11/19 00:27:34;;;;;;;0.90;0.90;;;;;;;6.99;38.37;91410.19;5092424;28;20040;-76
2022/11/19 00:30:00;;;;;;;0.60;0.60;;;;;;;6.94;37.86;91396.53;5092426;28;20032;-76
2022/11/19 00:32:25;;;;;;;0.60;0.60;;;;;;;6.94;37.95;91397.28;5093228;28;20036;-76
2022/11/19 00:34:51;;;;;;;0.70;0.70;;;;;;;6.91;38.00;91404.88;5088854;28;20043;-76
2022/11/19 00:37:16;;;;;;;0.70;0.70;;;;;;;6.87;38.13;91408.09;5092283;28;20489;-76
2022/11/19 00:39:42;;;;;;;0.85;0.70;;;;;;;6.86;38.25;91418.75;5093469;28;20505;-75
2022/11/19 00:42:07;;;;;;;0.60;0.60;;;;;;;6.80;38.67;91412.91;5091600;28;20088;-75
2022/11/19 00:44:33;;;;;;;0.57;0.57;;;;;;;6.86;38.22;91408.34;5091758;28;20024;-75
2022/11/19 00:46:58;;;;;;;0.60;0.60;;;;;;;6.81;38.54;91414.44;5093199;28;20048;-75
2022/11/19 00:49:24;;;;;;;1.13;0.90;;;;;;;6.79;38.30;91424.34;5092888;28;20051;-75
2022/11/19 00:51:49;;;;;;;0.75;0.70;;;;;;;6.76;39.01;91416.38;5090807;28;20050;-75
2022/11/19 00:54:15;;;;;;;1.00;0.70;;;;;;;6.73;39.08;91416.94;5090360;28;20531;-75
2022/11/19 00:56:41;;;;;;;0.98;0.77;;;;;;;6.79;38.70;91426.94;5108856;28;20047;-75
2022/11/19 00:59:06;;;;;;;0.63;0.63;;;;;;;6.76;38.85;91422.34;5093139;28;20023;-75
2022/11/19 01:01:32;;;;;;;1.08;0.63;;;;;;;6.73;38.87;91428.09;5091875;28;20409;-75
2022/11/19 01:03:58;;;;;;;0.60;0.60;;;;;;;6.73;39.26;91428.09;5090309;28;20409;-75
2022/11/19 01:06:25;;;;;;;0.52;0.52;;;;;;;6.68;39.67;91436.75;5106584;28;20481;-75
2022/11/19 01:08:51;;;;;;;0.85;0.70;;;;;;;6.69;39.54;91437.56;5091577;28;20520;-75
2022/11/19 01:11:26;;;;;;;0.90;0.70;;;;;;;6.66;39.83;91427.69;5091615;28;20128;-75
2022/11/19 01:13:52;;;;;;;0.60;0.60;;;;;;;6.70;39.40;91430.50;5092763;28;20040;-75
2022/11/19 01:16:29;;;;;;;1.25;0.70;;;;;;;6.62;39.93;91434.53;5075375;28;20024;-75
2022/11/19 01:18:55;;;;;;;0.80;0.80;;;;;;;6.71;39.63;91438.03;5072532;28;20036;-75
2022/11/19 01:21:24;;;;;;;0.60;0.60;;;;;;;6.67;40.11;91437.06;5078042;28;20119;-75
2022/11/19 01:23:50;;;;;;;0.63;0.63;;;;;;;6.62;39.84;91442.34;5083601;28;20108;-75
2022/11/19 01:26:16;;;;;;;0.70;0.70;;;;;;;6.60;39.96;91434.84;5090549;28;20481;-75
2022/11/19 01:28:42;;;;;;;0.65;0.65;;;;;;;6.66;40.07;91436.31;5074308;28;20097;-75
2022/11/19 01:31:10;;;;;;;0.80;0.75;;;;;;;6.63;40.01;91438.69;5107700;28;20027;-75
2022/11/19 01:33:36;;;;;;;0.60;0.60;;;;;;;6.63;39.90;91446.50;5091615;28;20044;-75
2022/11/19 01:36:05;;;;;;;0.60;0.60;;;;;;;6.56;40.43;91443.50;5101423;28;20400;-75
2022/11/19 01:38:30;;;;;;;0.75;0.75;;;;;;;6.55;39.97;91447.13;5092627;28;20020;-75
2022/11/19 01:40:57;;;;;;;0.60;0.60;;;;;;;6.62;39.72;91447.53;5092318;28;20028;-75
2022/11/19 01:43:48;;;;;;;0.98;0.70;;;;;;;6.66;40.03;91438.09;5092208;28;20036;-75
2022/11/19 01:46:19;;;;;;;0.65;0.65;;;;;;;6.60;39.93;91442.63;5091427;28;20427;-75
2022/11/19 01:48:52;;;;;;;2.70;0.80;;;;;;;6.57;40.20;91434.63;5106363;28;20505;-75
2022/11/19 01:51:29;;;;;;;0.65;0.65;;;;;;;6.52;41.25;91447.72;5092146;28;20089;-75
2022/11/19 01:53:59;;;;;;;0.85;0.80;;;;;;;6.58;39.46;91444.00;5090578;28;20498;-75
2022/11/19 01:56:27;;;;;;;0.60;0.60;;;;;;;6.64;39.91;91435.03;5103875;28;20382;-75
2022/11/19 01:59:02;;;;;;;0.70;0.70;;;;;;;6.62;40.55;91437.94;5091911;28;20027;-76
2022/11/19 02:01:29;;;;;;;0.90;0.77;;;;;;;6.64;39.63;91441.00;5090652;28;20040;-76
2022/11/19 02:03:59;;;;;;;0.80;0.80;;;;;;;6.55;40.46;91437.53;5101949;28;20035;-76
2022/11/19 02:06:27;;;;;;;1.08;0.80;;;;;;;6.62;40.38;91444.94;5075257;28;20531;-75
2022/11/19 02:08:53;;;;;;;0.60;0.60;;;;;;;6.56;40.43;91449.47;5107295;28;20063;-75
2022/11/19 02:11:27;;;;;;;0.65;0.65;;;;;;;6.47;41.46;91438.94;5091998;28;20076;-76
2022/11/19 02:14:08;;;;;;;0.45;0.45;;;;;;;6.46;40.81;91432.22;5090404;28;20173;-75
2022/11/19 02:17:02;;;;;;;0.60;0.60;;;;;;;6.57;40.11;91439.81;5089124;28;20251;-75
2022/11/19 02:20:01;;;;;;;0.98;0.70;;;;;;;6.51;40.46;91439.16;5088757;28;20293;-76
2022/11/19 02:22:55;;;;;;;0.70;0.63;;;;;;;6.43;40.52;91443.16;5090590;28;20036;-75
2022/11/19 02:25:38;;;;;;;0.50;0.50;;;;;;;6.47;40.04;91431.16;5089298;28;20450;-75
2022/11/19 02:28:10;;;;;;;0.60;0.60;;;;;;;6.43;40.38;91434.59;5088295;28;20039;-75
2022/11/19 02:30:40;;;;;;;0.70;0.70;;;;;;;6.37;40.93;91446.94;5091558;28;20047;-75
2022/11/19 02:33:20;;;;;;;0.60;0.60;;;;;;;6.40;40.97;91438.56;5089039;28;20286;-75
2022/11/19 02:35:54;;;;;;;0.65;0.65;;;;;;;6.30;41.63;91435.34;5090130;28;20032;-75
2022/11/19 02:38:43;;;;;;;0.40;0.40;;;;;;;6.29;41.40;91433.81;5088287;28;20515;-76
2022/11/19 02:41:37;;;;;;;0.63;0.63;;;;;;;6.33;40.96;91440.00;5089853;28;20039;-75
2022/11/19 02:47:11;;;;;;;0.50;0.50;;;;;;;6.28;41.67;91440.81;5071227;28;20040;-75
2022/11/19 02:49:43;;;;;;;0.57;0.57;;;;;;;6.36;41.05;91439.41;5082307;28;20028;-75
2022/11/19 02:52:08;;;;;;;0.73;0.73;;;;;;;6.32;41.17;91439.19;5089685;28;20059;-75
2022/11/19 02:54:34;;;;;;;0.73;0.73;;;;;;;6.28;41.34;91440.81;5090133;28;20078;-76
2022/11/19 02:57:01;;;;;;;1.85;0.70;;;;;;;6.43;40.60;91432.78;5072960;28;20063;-76
2022/11/19 03:05:13;;;;;;;0.80;0.80;;;;;;;6.58;40.26;91436.94;5071169;28;20040;-75
2022/11/19 03:07:39;;;;;;;0.80;0.80;;;;;;;6.56;40.38;91439.06;5052742;28;20032;-76
2022/11/19 03:10:08;;;;;;;0.60;0.60;;;;;;;6.53;40.45;91433.66;5070444;28;20060;-74
2022/11/19 03:16:40;;;;;;;0.50;0.50;;;;;;;6.39;41.01;91434.38;5068938;28;20531;-74
2022/11/19 03:19:50;;;;;;;0.60;0.60;;;;;;;6.50;40.76;91442.03;5069336;28;20530;-74
2022/11/19 03:22:23;;;;;;;0.40;0.40;;;;;;;6.52;40.00;91429.53;5077918;28;20041;-74
2022/11/19 03:25:15;;;;;;;0.60;0.60;;;;;;;6.49;40.64;91437.91;5070340;28;20037;-74
2022/11/19 03:27:44;;;;;;;0.70;0.70;;;;;;;6.40;41.08;91430.75;5070464;28;20047;-74
2022/11/19 03:30:12;;;;;;;0.60;0.60;;;;;;;6.45;40.67;91433.25;5073340;28;20044;-74
2022/11/19 03:32:44;;;;;;;0.60;0.60;;;;;;;6.44;40.33;91436.16;5056589;28;20530;-74
2022/11/19 03:35:17;;;;;;;0.50;0.50;;;;;;;6.40;40.99;91437.78;5075877;28;20066;-75
2022/11/19 03:37:49;;;;;;;1.00;0.90;;;;;;;6.29;41.45;91424.19;5074344;28;20110;-75
2022/11/19 03:40:18;;;;;;;1.02;0.70;;;;;;;6.27;41.15;91431.50;5074244;28;20082;-76
2022/11/19 03:42:47;;;;;;;0.60;0.60;;;;;;;6.26;40.97;91432.56;5073108;28;20420;-75
2022/11/19 03:45:17;;;;;;;0.43;0.43;;;;;;;6.31;40.96;91432.47;5073753;28;20040;-75
2022/11/19 03:47:47;;;;;;;0.77;0.55;;;;;;;6.26;41.35;91429.97;5065653;28;20114;-76
2022/11/19 03:50:32;;;;;;;0.60;0.60;;;;;;;6.29;40.89;91428.63;5094428;28;20036;-76
2022/11/19 03:52:58;;;;;;;0.60;0.60;;;;;;;6.22;41.48;91426.38;5091656;28;20079;-75
2022/11/19 03:55:31;;;;;;;0.60;0.60;;;;;;;6.24;41.13;91426.88;5093118;28;20562;-75
2022/11/19 03:58:03;;;;;;;0.70;0.70;;;;;;;6.26;41.30;91427.34;5092409;28;20036;-75
2022/11/19 04:00:28;;;;;;;0.70;0.63;;;;;;;6.32;40.91;91413.19;5094263;28;20081;-76
2022/11/19 04:02:54;;;;;;;0.75;0.75;;;;;;;6.35;40.88;91412.66;5092501;28;20024;-75
2022/11/19 04:05:19;;;;;;;2.30;0.60;;;;;;;6.37;40.62;91423.53;5093021;28;20055;-76
2022/11/19 04:07:45;;;;;;;0.50;0.50;;;;;;;6.40;40.27;91412.56;5090387;28;20175;-75
2022/11/19 04:10:10;;;;;;;0.70;0.70;;;;;;;6.35;40.63;91417.84;5091204;28;20115;-75
2022/11/19 04:12:36;;;;;;;0.55;0.55;;;;;;;6.35;40.74;91417.06;5074253;28;20405;-75
2022/11/19 04:15:01;;;;;;;0.60;0.60;;;;;;;6.32;40.73;91423.59;5092802;28;20040;-75
2022/11/19 04:17:27;;;;;;;0.50;0.50;;;;;;;6.27;40.86;91410.69;5092607;28;20493;-75
2022/11/19 04:19:52;;;;;;;0.63;0.63;;;;;;;6.34;40.58;91418.13;5078774;28;20047;-75
2022/11/19 04:22:18;;;;;;;0.50;0.50;;;;;;;6.39;40.05;91423.22;5074753;28;20081;-75
2022/11/19 04:24:43;;;;;;;0.50;0.50;;;;;;;6.38;40.00;91417.28;5073458;28;20033;-75
2022/11/19 04:27:09;;;;;;;0.85;0.50;;;;;;;6.36;40.13;91426.41;5038976;28;20127;-75
2022/11/19 04:29:35;;;;;;;0.40;0.40;;;;;;;6.34;40.23;91421.50;5079288;28;20059;-75
2022/11/19 04:32:00;;;;;;;0.60;0.60;;;;;;;6.27;41.12;91423.69;5091918;28;20047;-75
2022/11/19 04:34:26;;;;;;;0.80;0.70;;;;;;;6.28;40.72;91433.00;5090698;28;20146;-75
2022/11/19 04:36:51;;;;;;;0.70;0.70;;;;;;;6.29;40.49;91429.38;5075324;28;20035;-75
2022/11/19 04:39:17;;;;;;;0.50;0.50;;;;;;;6.25;40.94;91426.56;5091510;28;20032;-75
2022/11/19 04:41:42;;;;;;;0.77;0.77;;;;;;;6.25;40.81;91428.41;5089221;28;20032;-75
2022/11/19 04:44:08;;;;;;;0.60;0.60;;;;;;;6.31;40.31;91424.66;5091704;28;20116;-75
2022/11/19 04:46:33;;;;;;;0.65;0.65;;;;;;;6.28;40.37;91425.22;5108968;28;20100;-74
2022/11/19 04:48:59;;;;;;;0.55;0.50;;;;;;;6.21;41.09;91428.22;5091831;28;20077;-75
2022/11/19 04:51:25;;;;;;;0.52;0.52;;;;;;;6.21;40.68;91428.22;5106170;28;20032;-74
2022/11/19 04:53:50;;;;;;;0.50;0.50;;;;;;;6.16;41.18;91430.09;5087626;28;20472;-75
2022/11/19 04:56:16;;;;;;;0.57;0.57;;;;;;;6.18;40.55;91444.34;5071804;28;20462;-75
2022/11/19 04:58:41;;;;;;;0.40;0.40;;;;;;;6.23;40.55;91446.09;5071619;28;20025;-75
2022/11/19 05:01:07;;;;;;;0.63;0.63;;;;;;;6.25;40.77;91449.19;5074250;28;20040;-74
2022/11/19 05:03:33;;;;;;;1.85;0.80;;;;;;;6.21;40.51;91449.00;5072710;28;20036;-76
2022/11/19 05:05:59;;;;;;;0.52;0.52;;;;;;;6.33;40.20;91461.53;5090472;28;20541;-75
2022/11/19 05:08:24;;;;;;;0.57;0.57;;;;;;;6.27;40.24;91462.69;5091489;28;20032;-75
2022/11/19 05:10:50;;;;;;;0.60;0.60;;;;;;;6.18;40.96;91456.59;5072913;28;20512;-75
2022/11/19 05:13:16;;;;;;;0.60;0.60;;;;;;;6.18;40.94;91454.75;5091243;28;20059;-75
2022/11/19 05:15:41;;;;;;;0.70;0.70;;;;;;;6.15;40.71;91455.31;5089808;28;20036;-75
2022/11/19 05:18:07;;;;;;;0.50;0.50;;;;;;;6.19;40.92;91463.31;5074468;28;20044;-75
2022/11/19 05:20:32;;;;;;;0.55;0.50;;;;;;;6.13;40.76;91467.06;5092671;28;20040;-75
2022/11/19 05:22:58;;;;;;;0.70;0.70;;;;;;;6.22;40.01;91478.34;5091532;28;20020;-75
2022/11/19 05:25:23;;;;;;;0.60;0.60;;;;;;;6.29;40.14;91476.16;5085011;28;20106;-74
2022/11/19 05:27:49;;;;;;;0.75;0.70;;;;;;;6.25;40.48;91469.97;5091202;28;20100;-75
2022/11/19 05:30:15;;;;;;;0.82;0.60;;;;;;;6.26;40.20;91476.75;5090704;28;20024;-75
2022/11/19 05:32:41;;;;;;;1.17;0.80;;;;;;;6.21;40.29;91479.41;5091433;28;20043;-75
2022/11/19 05:35:07;;;;;;;0.52;0.52;;;;;;;6.18;40.63;91472.19;5089554;28;20087;-75
2022/11/19 05:37:32;;;;;;;0.80;0.80;;;;;;;6.30;40.18;91477.69;5091031;28;20473;-76
2022/11/19 05:39:58;;;;;;;0.70;0.70;;;;;;;6.24;39.94;91473.66;5108076;28;20042;-75
2022/11/19 05:42:24;;;;;;;0.70;0.70;;;;;;;6.35;39.71;91476.84;5090365;28;20224;-75
2022/11/19 05:44:49;;;;;;;0.60;0.60;;;;;;;6.22;40.23;91478.34;5092328;28;20370;-75
2022/11/19 05:47:15;;;;;;;0.60;0.60;;;;;;;6.19;40.49;91484.09;5072380;28;20043;-76
2022/11/19 05:49:41;;;;;;;0.77;0.50;;;;;;;6.21;39.97;91479.41;5090772;28;20059;-75
2022/11/19 05:52:07;;;;;;;0.60;0.60;;;;;;;6.22;40.13;91475.75;5090441;28;20409;-76
2022/11/19 05:54:32;;;;;;;0.30;0.30;;;;;;;6.17;39.99;91468.00;5075273;28;20040;-76
2022/11/19 05:56:58;;;;;;;0.60;0.60;;;;;;;6.20;40.30;91480.47;5072865;28;20028;-76
2022/11/19 05:59:24;;;;;;;0.60;0.60;;;;;;;6.25;39.60;91481.13;5070556;28;20017;-75
2022/11/19 06:01:49;;;;;;;0.68;0.68;;;;;;;6.25;39.93;91475.19;5070422;28;20040;-75
2022/11/19 06:04:15;;;;;;;0.60;0.60;;;;;;;6.33;39.64;91489.38;5077231;28;20115;-76
2022/11/19 06:06:40;;;;;;;0.68;0.68;;;;;;;6.27;40.35;91483.47;5090111;28;20110;-75
2022/11/19 06:09:06;;;;;;;0.45;0.45;;;;;;;6.27;39.75;91478.28;5091061;28;20032;-76
2022/11/19 06:11:46;;;;;;;0.30;0.30;;;;;;;6.24;39.80;91489.25;5056898;28;20028;-76
2022/11/19 06:14:23;;;;;;;0.50;0.50;;;;;;;6.29;39.69;91485.78;5088357;28;20393;-75
2022/11/19 06:16:59;;;;;;;0.80;0.80;;;;;;;6.36;39.40;91481.00;5070749;28;20037;-75
2022/11/19 06:19:25;;;;;;;0.40;0.40;;;;;;;6.30;39.72;91495.88;5086960;28;20133;-75
2022/11/19 06:21:51;;;;;;;0.70;0.70;;;;;;;6.24;39.91;91494.44;5071210;28;20031;-75
2022/11/19 06:24:17;;;;;;;0.60;0.60;;;;;;;6.21;39.67;91494.97;5081268;28;20060;-76
2022/11/19 06:26:43;;;;;;;0.50;0.50;;;;;;;6.17;39.78;91499.19;5084362;28;20036;-76
2022/11/19 06:29:14;;;;;;;0.70;0.70;;;;;;;6.19;39.96;91502.28;5072011;28;20035;-77
2022/11/19 06:31:41;;;;;;;0.70;0.70;;;;;;;6.12;40.45;91501.88;5074786;28;20048;-79
2022/11/19 06:34:07;;;;;;;1.15;0.70;;;;;;;6.09;40.52;91503.22;5090930;28;20039;-76
2022/11/19 06:36:33;;;;;;;0.68;0.68;;;;;;;6.21;39.82;91492.38;5074704;28;20402;-77
2022/11/19 06:38:59;;;;;;;0.50;0.50;;;;;;;6.23;39.66;91501.44;5081881;28;20028;-77
2022/11/19 06:41:24;;;;;;;0.73;0.73;;;;;;;6.23;39.91;91498.06;5072159;28;20093;-77
2022/11/19 06:43:50;;;;;;;0.57;0.57;;;;;;;6.25;39.68;91503.78;5073753;28;20097;-77
2022/11/19 06:46:15;;;;;;;0.52;0.52;;;;;;;6.27;39.83;91509.47;5081213;28;20044;-76
2022/11/19 06:48:41;;;;;;;1.92;0.68;;;;;;;6.29;39.97;91507.34;5084634;28;20034;-76
2022/11/19 06:51:07;;;;;;;0.73;0.73;;;;;;;6.67;39.16;91513.25;5082773;28;20047;-76
2022/11/19 06:53:33;;;;;;;0.52;0.52;;;;;;;7.70;38.07;91513.97;5086331;28;20075;-77
2022/11/19 06:56:01;;;;;;;0.52;0.52;;;;;;;8.60;36.12;91506.34;5075495;28;20044;-77
2022/11/19 06:58:27;;;;;;;0.70;0.70;;;;;;;9.14;34.18;91503.69;5095451;28;20589;-77
2022/11/19 07:00:53;;;;;;;0.90;0.65;;;;;;;10.20;33.58;91501.06;5103048;28;20043;-77
2022/11/19 07:03:19;;;;;;;0.73;0.73;;;;;;;11.15;32.12;91508.06;5087988;28;20032;-76
2022/11/19 07:05:49;;;;;;;0.60;0.60;;;;;;;12.05;30.90;91506.28;5089759;28;20032;-76
2022/11/19 07:08:15;;;;;;;0.60;0.60;;;;;;;13.09;28.41;91509.94;5085377;28;20160;-77
2022/11/19 07:10:41;;;;;;;0.80;0.80;;;;;;;13.60;28.39;91507.84;5064105;28;20476;-76
2022/11/19 07:13:07;;;;;;;0.70;0.70;;;;;;;14.32;27.08;91516.03;5086115;28;20367;-77
2022/11/19 07:15:33;;;;;;;0.73;0.73;;;;;;;15.13;26.30;91515.22;5084072;28;20065;-77
2022/11/19 07:18:00;;;;;;;3.05;1.40;;;;;;;15.91;24.74;91532.25;5103754;28;20493;-77
2022/11/19 07:20:25;;;;;;;0.52;0.52;;;;;;;16.18;25.30;91529.84;5087719;28;20442;-77
2022/11/19 07:22:51;;;;;;;0.60;0.60;;;;;;;16.65;24.97;91527.06;5097344;28;20032;-78
2022/11/19 07:25:16;;;;;;;0.75;0.70;;;;;;;17.28;24.30;91530.56;5088589;28;20502;-77
2022/11/19 07:27:42;;;;;;;0.63;0.63;;;;;;;18.09;22.48;91527.03;5072506;28;20043;-76
2022/11/19 07:30:08;;;;;;;0.50;0.50;;;;;;;18.36;22.48;91527.03;5088842;28;20043;-75
2022/11/19 07:32:34;;;;;;;0.55;0.55;;;;;;;18.86;21.57;91528.50;5068535;28;20091;-77
2022/11/19 07:34:59;;;;;;;0.32;0.32;;;;;;;19.35;21.57;91522.22;5083976;28;20130;-76
2022/11/19 07:37:25;;;;;;;0.57;0.57;;;;;;;19.51;21.90;91529.22;5084265;28;20065;-76
2022/11/19 07:39:50;;;;;;;0.50;0.50;;;;;;;19.32;21.49;91530.91;5082220;28;20043;-77
2022/11/19 07:45:07;;;;;;;0.80;0.70;;;;;;;20.35;20.73;91545.50;5106522;28;20059;-77
2022/11/19 07:47:34;;;;;;;0.52;0.52;;;;;;;20.89;19.98;91549.25;5086452;28;20510;-76
2022/11/19 07:49:59;;;;;;;0.60;0.45;;;;;;;20.72;19.10;91553.34;5088552;28;20036;-77
2022/11/19 07:52:25;;;;;;;1.98;1.20;;;;;;;21.75;18.77;91549.59;5080560;28;20045;-77
2022/11/19 07:54:51;;;;;;;0.65;0.65;;;;;;;22.69;19.68;91549.63;5089411;28;20097;-77
2022/11/19 07:57:17;;;;;;;0.70;0.70;;;;;;;23.75;19.29;91552.34;5090022;28;20485;-76
2022/11/19 07:59:42;;;;;;;0.75;0.73;;;;;;;23.11;19.09;91564.03;5083796;28;20434;-77
2022/11/19 08:02:12;;;;;;;1.42;0.88;;;;;;;21.69;21.72;91566.31;5077466;28;20401;-76
2022/11/19 08:04:38;;;;;;;0.95;0.73;;;;;;;21.61;20.47;91560.19;5083481;28;20036;-76
2022/11/19 08:07:03;;;;;;;0.68;0.68;;;;;;;22.45;19.69;91562.63;5090287;28;20124;-76
2022/11/19 08:09:29;;;;;;;1.10;0.98;;;;;;;22.77;20.21;91546.56;5086017;28;20060;-76
2022/11/19 08:11:54;;;;;;;1.65;1.10;;;;;;;22.64;18.72;91561.44;5066414;28;20050;-76
2022/11/19 08:14:20;;;;;;;0.70;0.70;;;;;;;22.57;19.03;91554.22;5083093;28;20128;-76
2022/11/19 08:19:30;;;;;;;0.80;0.80;;;;;;;23.64;17.73;91552.34;5087515;28;20038;-78
2022/11/19 08:21:55;;;;;;;1.13;0.73;;;;;;;24.63;15.90;91555.56;5084257;28;20071;-79
2022/11/19 08:24:21;;;;;;;0.70;0.70;;;;;;;25.03;16.19;91561.28;5083292;28;20040;-77
2022/11/19 08:26:47;;;;;;;0.98;0.98;;;;;;;26.14;17.23;91551.91;5071537;28;20059;-76
2022/11/19 08:29:15;;;;;;;1.88;1.00;;;;;;;24.55;18.90;91553.34;5091915;28;20039;-77
2022/11/19 08:31:42;;;;;;;1.20;0.80;;;;;;;23.23;19.91;91550.25;5102441;28;20040;-76
2022/11/19 08:34:07;;;;;;;4.45;2.00;;;;;;;22.17;20.47;91552.66;5086137;28;20076;-76
2022/11/19 08:36:33;;;;;;;1.50;0.93;;;;;;;21.46;22.05;91550.66;5087230;28;20032;-76
2022/11/19 08:38:59;;;;;;;0.77;0.70;;;;;;;19.08;23.72;91552.63;5071399;28;20040;-76
2022/11/19 08:44:11;;;;;;;1.35;0.70;;;;;;;16.59;26.18;91559.41;5091830;28;20420;-76
2022/11/19 08:46:37;;;;;;;1.38;0.73;;;;;;;16.48;27.67;91563.69;5088568;28;20086;-76
2022/11/19 08:49:04;;;;;;;1.40;0.70;;;;;;;16.44;28.17;91559.09;5089026;28;20382;-76
2022/11/19 08:51:29;;;;;;;0.88;0.75;;;;;;;16.59;27.17;91560.16;5085183;28;20032;-75
2022/11/19 08:53:55;;;;;;;0.60;0.60;;;;;;;16.20;26.27;91560.06;5089033;28;20097;-75
2022/11/19 08:56:21;;;;;;;1.05;0.70;;;;;;;16.12;25.40;91558.38;5087108;28;20050;-76
2022/11/19 08:58:47;;;;;;;0.60;0.60;;;;;;;15.54;25.68;91569.41;5073673;28;20040;-76
2022/11/19 09:01:15;;;;;;;1.08;0.80;;;;;;;15.72;27.85;91563.84;5092530;28;20107;-75
2022/11/19 09:03:42;;;;;;;1.58;0.93;;;;;;;15.09;30.85;91573.13;5087154;28;20047;-76
2022/11/19 09:06:07;;;;;;;1.40;1.00;;;;;;;15.01;31.40;91568.75;5073361;28;20028;-75
2022/11/19 09:08:34;;;;;;;1.60;1.00;;;;;;;15.06;31.07;91575.66;5091663;28;20040;-76
2022/11/19 09:11:05;;;;;;;3.40;1.30;;;;;;;14.68;31.51;91574.22;5090439;28;20036;-76
2022/11/19 09:13:30;;;;;;;1.83;1.10;;;;;;;14.72;30.12;91573.22;5089170;28;20066;-75
2022/11/19 09:15:56;;;;;;;1.38;0.90;;;;;;;14.60;31.29;91570.63;5085418;28;20445;-77
2022/11/19 09:18:22;;;;;;;1.42;0.80;;;;;;;15.16;28.70;91572.56;5091743;28;20537;-76
2022/11/19 09:20:53;;;;;;;1.00;0.90;;;;;;;14.98;29.28;91574.72;5089971;28;20032;-76
2022/11/19 09:23:18;;;;;;;1.88;1.00;;;;;;;14.70;31.64;91580.72;5077712;28;20042;-76
2022/11/19 09:25:44;;;;;;;1.48;0.90;;;;;;;14.07;34.20;91577.66;5081913;28;20119;-76
2022/11/19 09:28:10;;;;;;;1.10;0.93;;;;;;;13.24;34.72;91582.09;5087620;28;20028;-75
2022/11/19 09:30:35;;;;;;;1.65;1.10;;;;;;;14.17;34.30;91571.97;5066420;28;20039;-75
2022/11/19 09:33:01;;;;;;;0.90;0.80;;;;;;;14.46;32.82;91578.09;5080362;28;20040;-76
2022/11/19 09:35:26;;;;;;;1.00;0.90;;;;;;;13.71;34.29;91582.59;5071163;28;20482;-76
2022/11/19 09:37:52;;;;;;;1.38;0.93;;;;;;;13.03;35.18;91601.31;5071043;28;20542;-77
2022/11/19 09:40:20;;;;;;;1.35;0.98;;;;;;;12.51;37.07;91599.06;5036395;28;20036;-77
2022/11/19 09:43:05;;;;;;;1.45;1.02;;;;;;;12.61;37.59;91595.28;5061516;28;20032;-77
2022/11/19 09:45:53;;;;;;;4.68;1.50;;;;;;;12.88;35.34;91597.41;5087029;28;20428;-76
2022/11/19 09:48:34;;;;;;;1.67;1.00;;;;;;;13.52;35.18;91590.97;5090279;28;20081;-76
2022/11/19 09:51:13;;;;;;;1.25;0.90;;;;;;;13.10;34.73;91606.81;5112990;27;20024;-76
2022/11/19 09:53:56;;;;;;;1.40;0.82;;;;;;;12.79;36.00;91588.06;5087272;28;20097;-76
2022/11/19 09:56:28;;;;;;;4.50;1.30;;;;;;;12.19;37.15;91601.25;5088920;28;20039;-74
2022/11/19 09:58:54;;;;;;;;;;;;;;;11.94;35.17;91596.91;5083438;28;20032;-76
2022/11/19 10:01:20;;;;;;;1.35;0.90;;;;;;;11.63;35.09;91592.69;5086548;28;20230;-76
2022/11/19 10:03:52;;;;;;;1.27;1.00;;;;;;;11.54;38.85;91592.69;5086612;28;20043;-76
2022/11/19 10:06:20;;;;;;;1.77;1.08;;;;;;;12.16;37.15;91591.41;5089917;28;20032;-76
2022/11/19 10:09:04;;;;;;;1.20;0.95;;;;;;;12.74;37.34;91596.91;5089486;28;20040;-76
2022/11/19 10:11:42;;;;;;;1.50;1.05;;;;;;;12.81;37.21;91591.91;5078376;28;20028;-76
2022/11/19 10:14:27;;;;;;;1.48;1.00;;;;;;;12.64;35.71;91586.78;5078384;28;20032;-76
2022/11/19 10:16:58;;;;;;;2.38;1.00;;;;;;;12.22;37.12;91584.13;5091518;28;20143;-76
2022/11/19 10:20:20;;;;;;;1.58;1.08;;;;;;;12.27;39.10;91579.47;5090023;28;20031;-76
2022/11/19 10:22:59;;;;;;;2.93;1.57;;;;;;;11.98;40.31;91579.44;5025910;28;20037;-77
2022/11/19 10:25:31;;;;;;;1.42;1.20;;;;;;;12.01;38.01;91578.84;5024706;28;22270;-76
2022/11/19 10:28:19;;;;;;;1.25;1.10;;;;;;;11.73;39.12;91584.47;5065156;28;20051;-77
2022/11/19 10:30:50;;;;;;;3.30;1.55;;;;;;;11.27;41.62;91580.75;5083682;28;20028;-77
2022/11/19 10:33:30;;;;;;;5.18;1.50;;;;;;;11.42;43.40;91588.13;5086159;28;20161;-77
2022/11/19 10:36:00;;;;;;;2.03;1.20;;;;;;;11.58;37.84;91579.75;5076380;28;20039;-76
2022/11/19 10:38:32;;;;;;;1.15;1.00;;;;;;;11.91;37.81;91579.19;5088293;28;20515;-77
2022/11/19 10:41:04;;;;;;;;;;;;;;;11.98;38.78;91580.22;5087949;28;20067;-76
2022/11/19 10:43:47;;;;;;;3.78;1.35;;;;;;;12.14;38.96;91571.84;5084467;28;19912;-75
2022/11/19 10:46:18;;;;;;;2.70;1.10;;;;;;;12.01;38.29;91570.97;5086226;28;20031;-74
2022/11/19 10:48:50;;;;;;;2.10;1.10;;;;;;;12.02;39.45;91569.88;5085852;28;20119;-75
2022/11/19 10:51:42;;;;;;;2.55;1.30;;;;;;;12.12;39.05;91553.78;5090779;28;20569;-75
2022/11/19 10:54:27;;;;;;;2.00;1.30;;;;;;;11.98;38.98;91555.84;5083791;28;20067;-76
2022/11/19 10:56:57;;;;;;;2.65;1.30;;;;;;;11.97;38.28;91556.94;5082447;28;20385;-76
2022/11/19 10:59:26;;;;;;;1.80;1.13;;;;;;;12.00;38.27;91556.28;5063964;28;20035;-75
2022/11/19 11:02:00;;;;;;;2.53;1.40;;;;;;;11.99;39.61;91549.53;5087287;28;20526;-76
2022/11/19 11:04:28;;;;;;;2.20;1.40;;;;;;;12.47;41.66;91554.34;5085242;28;20040;-76
2022/11/19 11:07:02;;;;;;;1.92;1.20;;;;;;;12.37;41.54;91546.81;5081206;28;20027;-77
2022/11/19 11:09:34;;;;;;;3.53;1.40;;;;;;;11.94;42.29;91554.97;5088353;28;20484;-76
2022/11/19 11:15:23;;;;;;;2.35;1.30;;;;;;;11.46;41.88;91546.34;5090490;28;19919;-78
2022/11/19 11:18:04;;;;;;;2.22;1.40;;;;;;;11.11;40.87;91548.28;5088022;28;20035;-78
2022/11/19 11:20:30;;;;;;;2.30;1.30;;;;;;;10.89;42.32;91552.63;5085072;28;20021;-77
2022/11/19 11:23:07;;;;;;;3.45;1.50;;;;;;;10.88;43.57;91545.84;5062579;28;20040;-77
2022/11/19 11:25:33;;;;;;;2.95;1.38;;;;;;;10.99;45.39;91536.59;5083957;28;20067;-77
2022/11/19 11:28:04;;;;;;;2.65;1.38;;;;;;;11.23;44.67;91543.16;5053868;28;20078;-78
2022/11/19 11:30:29;;;;;;;1.25;1.05;;;;;;;11.51;40.73;91542.78;5091310;28;20032;-77
2022/11/19 11:32:55;;;;;;;2.15;1.10;;;;;;;11.37;41.12;91538.50;5088371;28;20077;-77
2022/11/19 11:35:33;;;;;;;1.52;1.10;;;;;;;11.57;39.91;91541.50;5086954;28;20055;-78
2022/11/19 11:38:04;;;;;;;2.45;1.42;;;;;;;11.64;44.84;91537.31;5085305;28;20158;-77
2022/11/19 11:40:30;;;;;;;2.90;1.70;;;;;;;11.65;45.35;91528.38;5080313;28;20031;-78
2022/11/19 11:42:56;;;;;;;3.03;1.67;;;;;;;11.56;45.05;91530.25;5085982;28;20441;-78
2022/11/19 11:45:28;;;;;;;3.63;1.70;;;;;;;11.48;45.31;91535.53;5074723;28;20043;-77
2022/11/19 11:47:56;;;;;;;3.00;1.60;;;;;;;11.33;44.33;91532.34;5063060;28;20036;-77
2022/11/19 11:50:27;;;;;;;2.22;1.40;;;;;;;11.64;41.64;91524.22;5090825;28;20027;-76
2022/11/19 11:52:54;;;;;;;2.78;1.40;;;;;;;11.87;40.67;91527.38;5106923;28;20093;-76
2022/11/19 11:55:23;;;;;;;1.40;1.10;;;;;;;11.74;39.89;91517.09;5081627;28;20075;-76
2022/11/19 11:58:03;;;;;;;2.38;1.10;;;;;;;11.91;36.71;91516.25;5079530;28;20567;-77
2022/11/19 12:00:45;;;;;;;1.15;1.05;;;;;;;11.87;35.97;91505.59;5079928;28;20064;-76
2022/11/19 12:03:18;;;;;;;1.98;1.05;;;;;;;12.07;37.27;91504.13;5085859;28;20036;-76
2022/11/19 12:06:07;;;;;;;1.35;1.10;;;;;;;12.13;36.30;91496.81;5088615;28;20114;-76
2022/11/19 12:08:42;;;;;;;2.63;1.40;;;;;;;12.30;35.52;91494.09;5090844;28;20066;-76
2022/11/19 12:11:54;;;;;;;1.55;1.02;;;;;;;12.28;35.14;91489.16;5073092;28;20020;-76
2022/11/19 12:14:35;;;;;;;1.48;1.10;;;;;;;12.22;34.46;91485.16;5083373;28;20036;-76